Dallas Love Field
KDAL : now visible

Airfield :











YOU CAN JOIN US ON...

 
LOGIN :

Register | Disclaimer

   EN    FR    IT 

 









Legend :    VFR   Marginal VFR   IFR   Intensive IFR   Very Intensive IFR
Visi :
Ceiling :
>= 8 km
>= 3000ft
5 to 8 km
1000 to 3000 ft
1500m to 5 km
500 to 1000 ft
800 to 1500m
200 to 500 ft
< 800m
< 200 ft
Symbols :   Thunderstorms  Fog  Heavy snow  Heavy precipitations  Wind > 20 kt






- Airport Elevation : 487 ft
- IATA code : DAL


KDAL - Dallas Love Field

CURRENT METAR :
  • 120153Z 17004KT 10SM FEW250 09/02 A3042 RMK AO2 SLP302 T00890017 $

EXPIRED METARs :
  • 120053Z 17004KT 10SM FEW250 09/02 A3042 RMK AO2 SLP300 T00940017 $
  • 112353Z 15003KT 10SM FEW250 10/01 A3041 RMK AO2 SLP299 T01000011 10117 20089 56012 $

TAF KDAL
Valid from the 12 at 00:00 until the 13 at 00:00 UTC


112325Z 1200/1224 15006KT P6SM BKN250
FM121700 18011KT P6SM FEW250



MET'MAP, your aeronautical weather chart ! - Copyright ORBIFLY December 2007 - Disclaimer

ORBIFLY MET'MAP TEAM :

Programming & Development : Alexandra Zaïnal
Concept & original design : Baudouin d'Aumeries
Assistance for programming : Marc-Olivier Méhu
Technical & hardware support : Manuel Goepfert

Contact : metmap@orbifly.com




SOURCES & CREDITS :

   NOAA       Earth
Advisory